Map

Track Data

SID SEASON NUMBER BASIN SUBBASIN NAME ISO_TIME NATURE LAT LON WMO_WIND WMO_PRES WMO_AGENCY TRACK_TYPE DIST2LAND LANDFALL IFLAG USA_AGENCY USA_ATCF_ID USA_LAT USA_LON USA_RECORD USA_STATUS USA_WIND USA_PRES USA_SSHS USA_R34_NE USA_R34_SE USA_R34_SW USA_R34_NW USA_R50_NE USA_R50_SE USA_R50_SW USA_R50_NW USA_R64_NE USA_R64_SE USA_R64_SW USA_R64_NW USA_POCI USA_ROCI USA_RMW USA_EYE TOKYO_LAT TOKYO_LON TOKYO_GRADE TOKYO_WIND TOKYO_PRES TOKYO_R50_DIR TOKYO_R50_LONG TOKYO_R50_SHORT TOKYO_R30_DIR TOKYO_R30_LONG TOKYO_R30_SHORT TOKYO_LAND CMA_LAT CMA_LON CMA_CAT CMA_WIND CMA_PRES HKO_LAT HKO_LON HKO_CAT HKO_WIND HKO_PRES NEWDELHI_LAT NEWDELHI_LON NEWDELHI_GRADE NEWDELHI_WIND NEWDELHI_PRES NEWDELHI_CI NEWDELHI_DP NEWDELHI_POCI REUNION_LAT REUNION_LON REUNION_TYPE REUNION_WIND REUNION_PRES REUNION_TNUM REUNION_CI REUNION_RMW REUNION_R34_NE REUNION_R34_SE REUNION_R34_SW REUNION_R34_NW REUNION_R50_NE REUNION_R50_SE REUNION_R50_SW REUNION_R50_NW REUNION_R64_NE REUNION_R64_SE REUNION_R64_SW REUNION_R64_NW BOM_LAT BOM_LON BOM_TYPE BOM_WIND BOM_PRES BOM_TNUM BOM_CI BOM_RMW BOM_R34_NE BOM_R34_SE BOM_R34_SW BOM_R34_NW BOM_R50_NE BOM_R50_SE BOM_R50_SW BOM_R50_NW BOM_R64_NE BOM_R64_SE BOM_R64_SW BOM_R64_NW BOM_ROCI BOM_POCI BOM_EYE BOM_POS_METHOD BOM_PRES_METHOD NADI_LAT NADI_LON NADI_CAT NADI_WIND NADI_PRES WELLINGTON_LAT WELLINGTON_LON WELLINGTON_WIND WELLINGTON_PRES DS824_LAT DS824_LON DS824_STAGE DS824_WIND DS824_PRES TD9636_LAT TD9636_LON TD9636_STAGE TD9636_WIND TD9636_PRES TD9635_LAT TD9635_LON TD9635_WIND TD9635_PRES TD9635_ROCI NEUMANN_LAT NEUMANN_LON NEUMANN_CLASS NEUMANN_WIND NEUMANN_PRES MLC_LAT MLC_LON MLC_CLASS MLC_WIND MLC_PRES USA_GUST BOM_GUST BOM_GUST_PER REUNION_GUST REUNION_GUST_PER USA_SEAHGT USA_SEARAD_NE USA_SEARAD_SE USA_SEARAD_SW USA_SEARAD_NW STORM_SPEED STORM_DIR
1981307N17279 1981 100 NA CS KATRINA 1981-11-03 00:00:00 TS 16.9000 -81.2000 25 1005 hurdat_atl main 294 294 O_____________ hurdat_atl AL211981 16.9000 -81.2000 TD 25 1005 -1 3 348
1981307N17279 1981 100 NA CS KATRINA 1981-11-03 03:00:00 TS 17.0500 -81.2475 main 309 301 P_____________ AL211981 17.0500 -81.2475 TD 25 1005 -1 3 343
1981307N17279 1981 100 NA CS KATRINA 1981-11-03 06:00:00 TS 17.2000 -81.3000 25 1005 hurdat_atl main 309 309 O_____________ hurdat_atl AL211981 17.2000 -81.3000 TD 25 1005 -1 3 341
1981307N17279 1981 100 NA CS KATRINA 1981-11-03 09:00:00 TS 17.3500 -81.3575 main 317 317 P_____________ AL211981 17.3500 -81.3575 TD 25 1004 -1 3 343
1981307N17279 1981 100 NA CS KATRINA 1981-11-03 12:00:00 TS 17.5000 -81.4000 25 1004 hurdat_atl main 325 324 O_____________ hurdat_atl AL211981 17.5000 -81.4000 TD 25 1004 -1 3 355
1981307N17279 1981 100 NA CS KATRINA 1981-11-03 15:00:00 TS 17.6500 -81.4075 main 322 320 P_____________ AL211981 17.6500 -81.4075 TD 27 1003 -1 3 0
1981307N17279 1981 100 NA CS KATRINA 1981-11-03 18:00:00 TS 17.8000 -81.4000 30 1002 hurdat_atl main 320 318 O_____________ hurdat_atl AL211981 17.8000 -81.4000 TD 30 1002 -1 3 0
1981307N17279 1981 100 NA CS KATRINA 1981-11-03 21:00:00 TS 17.9575 -81.4000 main 317 317 P_____________ AL211981 17.9575 -81.4000 TD 30 1001 -1 3 0
1981307N17279 1981 100 NA CS KATRINA 1981-11-04 00:00:00 TS 18.1000 -81.4000 30 1001 hurdat_atl main 317 316 O_____________ hurdat_atl AL211981 18.1000 -81.4000 TD 30 1001 -1 2 354
1981307N17279 1981 100 NA CS KATRINA 1981-11-04 03:00:00 TS 18.2000 -81.4075 main 316 316 P_____________ AL211981 18.2000 -81.4075 TD 32 1000 -1 2 8
1981307N17279 1981 100 NA CS KATRINA 1981-11-04 06:00:00 TS 18.3000 -81.4000 35 1000 hurdat_atl main 317 317 O_____________ hurdat_atl AL211981 18.3000 -81.4000 TS 35 1000 0 2 11
1981307N17279 1981 100 NA CS KATRINA 1981-11-04 09:00:00 TS 18.4425 -81.3575 main 317 307 P_____________ AL211981 18.4425 -81.3575 TS 37 999 0 3 17
1981307N17279 1981 100 NA CS KATRINA 1981-11-04 12:00:00 TS 18.6000 -81.3000 40 998 hurdat_atl main 309 309 O_____________ hurdat_atl AL211981 18.6000 -81.3000 TS 40 998 0 3 18
1981307N17279 1981 100 NA CS KATRINA 1981-11-04 15:00:00 TS 18.7500 -81.2500 main 302 300 P_____________ AL211981 18.7500 -81.2500 TS 45 997 0 3 17
1981307N17279 1981 100 NA CS KATRINA 1981-11-04 18:00:00 TS 18.9000 -81.2000 50 996 hurdat_atl main 305 305 O_____________ hurdat_atl AL211981 18.9000 -81.2000 TS 50 996 0 3 16
1981307N17279 1981 100 NA CS KATRINA 1981-11-04 21:00:00 TS 19.0425 -81.1649 main 308 301 P_____________ AL211981 19.0425 -81.1649 TS 55 994 0 3 17
1981307N17279 1981 100 NA CS KATRINA 1981-11-05 00:00:00 TS 19.2000 -81.1000 60 993 hurdat_atl main 302 277 O_____________ hurdat_atl AL211981 19.2000 -81.1000 TS 60 993 0 4 28
1981307N17279 1981 100 NA CS KATRINA 1981-11-05 03:00:00 TS 19.3925 -80.9650 main 277 249 P_____________ AL211981 19.3925 -80.9650 TS 62 990 0 5 35
1981307N17279 1981 100 NA CS KATRINA 1981-11-05 06:00:00 TS 19.6000 -80.8000 65 988 hurdat_atl main 249 224 O_____________ hurdat_atl AL211981 19.6000 -80.8000 HU 65 988 1 5 35
1981307N17279 1981 100 NA CS KATRINA 1981-11-05 09:00:00 TS 19.8000 -80.6574 main 224 197 P_____________ AL211981 19.8000 -80.6574 HU 70 984 1 5 35
1981307N17279 1981 100 NA CS KATRINA 1981-11-05 12:00:00 TS 20.0000 -80.5000 75 980 hurdat_atl main 197 170 O_____________ hurdat_atl AL211981 20.0000 -80.5000 HU 75 980 1 5 39
1981307N17279 1981 100 NA CS KATRINA 1981-11-05 15:00:00 TS 20.1924 -80.3224 main 170 145 P_____________ AL211981 20.1924 -80.3224 HU 72 984 1 6 43
1981307N17279 1981 100 NA CS KATRINA 1981-11-05 18:00:00 TS 20.4000 -80.1000 70 988 hurdat_atl main 145 119 O_____________ hurdat_atl AL211981 20.4000 -80.1000 HU 70 988 1 6 45
1981307N17279 1981 100 NA CS KATRINA 1981-11-05 21:00:00 TS 20.6272 -79.8596 main 119 73 P_____________ AL211981 20.6272 -79.8596 HU 67 992 1 8 48
1981307N17279 1981 100 NA CS KATRINA 1981-11-06 00:00:00 TS 20.9000 -79.5000 65 996 hurdat_atl main 73 35 O_____________ hurdat_atl AL211981 20.9000 -79.5000 HU 65 996 1 10 55
1981307N17279 1981 100 NA CS KATRINA 1981-11-06 03:00:00 TS 21.2276 -78.9525 main 39 0 P_____________ AL211981 21.2276 -78.9525 HU 60 997 0 13 58
1981307N17279 1981 100 NA NA KATRINA 1981-11-06 06:00:00 TS 21.6000 -78.3000 55 999 hurdat_atl main 0 0 O_____________ hurdat_atl AL211981 21.6000 -78.3000 TS 55 999 0 14 57
1981307N17279 1981 100 NA NA KATRINA 1981-11-06 09:00:00 TS 21.9921 -77.6721 main 15 15 P_____________ AL211981 21.9921 -77.6721 TS 52 1000 0 14 56
1981307N17279 1981 100 NA NA KATRINA 1981-11-06 12:00:00 TS 22.4000 -77.0000 50 1001 hurdat_atl main 78 78 O_____________ hurdat_atl AL211981 22.4000 -77.0000 TS 50 1001 0 15 57
1981307N17279 1981 100 NA NA KATRINA 1981-11-06 15:00:00 TS 22.7990 -76.3167 main 147 147 P_____________ AL211981 22.7990 -76.3167 TS 47 1001 0 16 60
1981307N17279 1981 100 NA NA KATRINA 1981-11-06 18:00:00 TS 23.2000 -75.5000 45 1001 hurdat_atl main 234 234 O_____________ hurdat_atl AL211981 23.2000 -75.5000 TS 45 1001 0 19 65
1981307N17279 1981 100 NA NA KATRINA 1981-11-06 21:00:00 TS 23.5844 -74.4888 main 291 286 P_____________ AL211981 23.5844 -74.4888 TS 42 1001 0 22 68
1981307N17279 1981 100 NA NA KATRINA 1981-11-07 00:00:00 TS 24.0000 -73.3000 40 1001 hurdat_atl main 313 313 O_____________ hurdat_atl AL211981 24.0000 -73.3000 TS 40 1001 0 24 68
1981307N17279 1981 100 NA NA KATRINA 1981-11-07 03:00:00 TS 24.4914 -72.0170 main 382 382 P_____________ AL211981 24.4914 -72.0170 TS 40 1001 0 27 68
1981307N17279 1981 100 NA NA KATRINA 1981-11-07 06:00:00 TS 25.0000 -70.6000 40 1002 hurdat_atl main 490 490 O_____________ hurdat_atl AL211981 25.0000 -70.6000 TS 40 1002 0 28 70
1981307N17279 1981 100 NA NA KATRINA 1981-11-07 09:00:00 TS 25.4570 -69.0714 main 623 623 P_____________ AL211981 25.4570 -69.0714 TS 40 1002 0 29 72
1981307N17279 1981 100 NA NA KATRINA 1981-11-07 12:00:00 TS 25.9000 -67.5000 40 1002 hurdat_atl main 749 749 O_____________ hurdat_atl AL211981 25.9000 -67.5000 TS 40 1002 0 29 72
1981307N17279 1981 100 NA NA KATRINA 1981-11-07 15:00:00 TS 26.3499 -65.9824 main 852 852 P_____________ AL211981 26.3499 -65.9824 TS 40 1002 0 28 71
1981307N17279 1981 100 NA NA KATRINA 1981-11-07 18:00:00 TS 26.8000 -64.5000 40 1002 hurdat_atl main 945 O_____________ hurdat_atl AL211981 26.8000 -64.5000 TS 40 1002 0 28 71

About IBTrACS Database

This database is a web-friendly format of International Best Track Archive for Climate Stewardship (IBTrACS), a global best track data archive curated by NOAA dating back to 1842.

Updated: 2021-12-03